Time;durP1;ratioP1;P1;durP2;ratioP2;P2;SDS_P1;SDS_P2;PMS_P1;PMS_P2;Temp;Humidity;BMP_temperature;BMP_pressure;BME280_temperature;BME280_humidity;BME280_pressure;Samples;Min_cycle;Max_cycle;Signal;HPM_P1;HPM_P2
2024/01/26 00:01:50;;;;;;;12.57;3.25;;;;;;;4.46;100.00;100720.00;5044039;28;20110;-69
2024/01/26 00:04:15;;;;;;;8.45;2.97;;;;;;;4.26;100.00;100695.69;5051473;28;20060;-69
2024/01/26 00:06:41;;;;;;;10.88;2.90;;;;;;;4.26;100.00;100719.59;5051896;28;20032;-72
2024/01/26 00:09:11;;;;;;;10.40;2.90;;;;;;;4.35;100.00;100726.97;5051015;28;20315;-69
2024/01/26 00:11:37;;;;;;;10.90;2.85;;;;;;;4.37;100.00;100727.94;5051380;28;20518;-69
2024/01/26 00:14:03;;;;;;;9.77;3.20;;;;;;;4.34;100.00;100705.63;5051011;28;20060;-68
2024/01/26 00:16:29;;;;;;;10.10;3.08;;;;;;;4.48;100.00;100724.41;5051736;28;20096;-75
2024/01/26 00:18:54;;;;;;;7.35;2.78;;;;;;;4.67;100.00;100749.53;5050455;28;20029;-68
2024/01/26 00:21:20;;;;;;;7.90;3.20;;;;;;;4.43;100.00;100704.47;5051363;28;20036;-70
2024/01/26 00:23:45;;;;;;;10.38;3.22;;;;;;;4.81;100.00;100752.09;5050436;28;20041;-68
2024/01/26 00:26:14;;;;;;;7.22;3.00;;;;;;;4.87;100.00;100755.03;5050698;28;20033;-68
2024/01/26 00:28:40;;;;;;;10.38;3.25;;;;;;;4.78;100.00;100727.19;5042667;28;20171;-68
2024/01/26 00:31:06;;;;;;;8.43;3.03;;;;;;;4.90;100.00;100739.91;5048681;28;20037;-69
2024/01/26 00:33:32;;;;;;;9.20;3.00;;;;;;;4.92;100.00;100743.47;5050648;28;20128;-68
2024/01/26 00:35:58;;;;;;;6.53;2.42;;;;;;;4.62;100.00;100750.00;5050041;28;20086;-69
2024/01/26 00:38:23;;;;;;;9.10;2.80;;;;;;;4.41;100.00;100747.84;5049759;28;20479;-67
2024/01/26 00:40:50;;;;;;;10.30;2.67;;;;;;;4.14;100.00;100741.78;5050803;28;20029;-69
2024/01/26 00:43:16;;;;;;;7.60;2.55;;;;;;;3.78;100.00;100743.59;5050556;28;20037;-68
2024/01/26 00:45:42;;;;;;;5.38;2.40;;;;;;;3.70;100.00;100748.16;5042565;28;20510;-68
2024/01/26 00:48:08;;;;;;;7.70;3.08;;;;;;;3.66;100.00;100752.16;5050671;28;20029;-68
2024/01/26 00:50:34;;;;;;;8.98;3.25;;;;;;;3.70;100.00;100761.84;5051132;28;20029;-69
2024/01/26 00:53:00;;;;;;;9.52;2.97;;;;;;;3.54;100.00;100728.38;5050293;28;20020;-70
2024/01/26 00:55:29;;;;;;;7.75;3.08;;;;;;;3.70;100.00;100763.47;5050579;28;20040;-69
2024/01/26 00:57:56;;;;;;;7.60;2.95;;;;;;;3.70;100.00;100749.06;5050256;28;20527;-68
2024/01/26 01:00:23;;;;;;;12.27;3.22;;;;;;;3.74;100.00;100755.28;5049800;28;20533;-67
2024/01/26 01:02:50;;;;;;;11.35;3.10;;;;;;;3.68;100.00;100750.63;5050419;28;20832;-69
2024/01/26 01:05:16;;;;;;;8.80;2.83;;;;;;;3.73;100.00;100749.25;5049830;28;20108;-68
2024/01/26 01:07:42;;;;;;;9.30;2.80;;;;;;;3.84;100.00;100749.13;5049846;28;20112;-67
2024/01/26 01:10:10;;;;;;;11.07;3.42;;;;;;;4.02;100.00;100762.25;5050221;28;20037;-70
2024/01/26 01:12:39;;;;;;;7.43;2.88;;;;;;;4.04;100.00;100761.56;5050453;28;20471;-68
2024/01/26 01:15:05;;;;;;;6.18;2.58;;;;;;;3.95;100.00;100737.97;5049862;28;20119;-69
2024/01/26 01:17:30;;;;;;;8.25;2.80;;;;;;;3.97;100.00;100736.38;5049339;28;20438;-69
2024/01/26 01:19:56;;;;;;;7.70;2.85;;;;;;;4.14;100.00;100765.66;5050478;28;20033;-68
2024/01/26 01:22:21;;;;;;;10.45;3.17;;;;;;;4.15;100.00;100767.41;5049646;28;20107;-72
2024/01/26 01:24:47;;;;;;;5.68;2.63;;;;;;;4.16;100.00;100763.19;5049587;28;20033;-68
2024/01/26 01:27:13;;;;;;;6.85;2.55;;;;;;;4.12;100.00;100754.41;5049649;28;20079;-69
2024/01/26 01:29:38;;;;;;;6.97;2.80;;;;;;;4.20;100.00;100760.06;5046315;28;20036;-68
2024/01/26 01:32:04;;;;;;;10.27;2.95;;;;;;;4.14;100.00;100767.31;5049355;28;20112;-67
2024/01/26 01:34:30;;;;;;;13.00;2.70;;;;;;;4.14;100.00;100759.66;5049214;28;20041;-69
2024/01/26 01:36:55;;;;;;;8.95;2.75;;;;;;;4.20;100.00;100760.94;5049758;28;20027;-68
2024/01/26 01:39:21;;;;;;;7.28;3.00;;;;;;;4.14;100.00;100762.22;5049477;28;20024;-67
2024/01/26 01:41:50;;;;;;;9.60;3.15;;;;;;;4.19;100.00;100763.41;5049546;28;20448;-67
2024/01/26 01:44:15;;;;;;;6.05;2.80;;;;;;;4.19;100.00;100755.75;5049386;28;20040;-69
2024/01/26 01:46:41;;;;;;;8.52;3.20;;;;;;;4.14;100.00;100762.22;5049210;28;20029;-70
2024/01/26 01:49:07;;;;;;;11.40;3.10;;;;;;;4.13;100.00;100745.97;5049891;28;20127;-68
2024/01/26 01:51:35;;;;;;;9.60;3.13;;;;;;;4.03;100.00;100746.16;5036219;28;20033;-69
2024/01/26 01:54:01;;;;;;;7.40;2.90;;;;;;;4.08;100.00;100757.56;5047775;28;20392;-68
2024/01/26 01:56:28;;;;;;;7.07;3.00;;;;;;;3.78;100.00;100735.94;5048974;28;20155;-67
2024/01/26 01:58:55;;;;;;;10.95;3.10;;;;;;;3.93;100.00;100757.41;5049911;28;20695;-69
2024/01/26 02:01:20;;;;;;;7.18;2.72;;;;;;;3.67;100.00;100724.97;5049482;28;20029;-68
2024/01/26 02:03:46;;;;;;;8.88;2.80;;;;;;;3.90;100.00;100764.88;5048376;28;20033;-67
2024/01/26 02:06:12;;;;;;;7.35;2.70;;;;;;;3.76;100.00;100740.91;5029908;28;20037;-69
2024/01/26 02:08:37;;;;;;;8.93;3.38;;;;;;;3.82;100.00;100758.34;5048872;28;20147;-67
2024/01/26 02:11:03;;;;;;;9.52;3.38;;;;;;;3.41;100.00;100685.78;5049129;28;20029;-68
2024/01/26 02:13:29;;;;;;;11.27;3.03;;;;;;;3.75;100.00;100766.34;5048274;28;20037;-69
2024/01/26 02:15:54;;;;;;;8.02;2.88;;;;;;;3.69;100.00;100767.72;5049238;28;20067;-68
2024/01/26 02:18:20;;;;;;;11.88;4.45;;;;;;;3.66;100.00;100752.16;5047432;28;20029;-67
2024/01/26 02:20:45;;;;;;;7.97;2.75;;;;;;;3.74;100.00;100760.38;5049257;28;20029;-72
2024/01/26 02:23:20;;;;;;;10.13;3.15;;;;;;;3.77;100.00;100752.91;5049660;28;20079;-68
2024/01/26 02:25:45;;;;;;;8.52;2.83;;;;;;;3.80;100.00;100750.59;5048825;28;20462;-67
2024/01/26 02:28:11;;;;;;;13.18;3.72;;;;;;;3.77;100.00;100752.91;5047562;28;20033;-68
2024/01/26 02:30:36;;;;;;;10.45;2.90;;;;;;;3.68;100.00;100740.41;5048752;28;20048;-67
2024/01/26 02:33:02;;;;;;;7.43;2.83;;;;;;;3.59;100.00;100755.09;5048724;28;20079;-67
2024/01/26 02:35:28;;;;;;;8.05;2.97;;;;;;;3.11;100.00;100687.09;5049386;28;20064;-67
2024/01/26 02:37:53;;;;;;;8.30;3.30;;;;;;;3.39;100.00;100751.16;5048779;28;20499;-67
2024/01/26 02:40:19;;;;;;;10.02;3.33;;;;;;;3.36;100.00;100746.69;5048725;28;20033;-69
2024/01/26 02:42:44;;;;;;;9.10;2.88;;;;;;;3.42;100.00;100745.38;5046161;28;20037;-68
2024/01/26 02:45:10;;;;;;;12.40;3.50;;;;;;;2.95;100.00;100670.69;5049077;28;20029;-68
2024/01/26 02:47:35;;;;;;;6.75;2.72;;;;;;;3.32;100.00;100742.16;5046229;28;20575;-69
2024/01/26 02:50:01;;;;;;;7.30;2.65;;;;;;;3.19;100.00;100706.34;5049314;28;20053;-67
2024/01/26 02:52:26;;;;;;;9.10;4.57;;;;;;;2.58;100.00;100586.53;5048400;28;20051;-68
2024/01/26 02:54:52;;;;;;;7.55;2.90;;;;;;;3.21;100.00;100704.81;5048435;28;20560;-68
2024/01/26 02:57:17;;;;;;;7.70;2.90;;;;;;;3.36;100.00;100733.94;5048472;28;20100;-70
2024/01/26 02:59:43;;;;;;;8.75;3.10;;;;;;;3.05;100.00;100668.03;5047368;28;20021;-68
2024/01/26 03:02:08;;;;;;;9.60;3.90;;;;;;;3.25;100.00;100696.56;5049038;28;20033;-70
2024/01/26 03:04:34;;;;;;;9.18;3.60;;;;;;;3.46;100.00;100734.59;5048889;28;20425;-67
2024/01/26 03:07:00;;;;;;;12.73;4.07;;;;;;;3.47;100.00;100728.72;5048714;28;20025;-68
2024/01/26 03:09:25;;;;;;;10.23;2.90;;;;;;;3.44;100.00;100742.16;5047930;28;20033;-67
2024/01/26 03:11:51;;;;;;;8.10;2.80;;;;;;;3.45;100.00;100737.91;5048684;28;20025;-68
2024/01/26 03:14:16;;;;;;;9.50;3.55;;;;;;;3.41;100.00;100741.91;5047927;28;20040;-67
2024/01/26 03:16:42;;;;;;;11.38;3.42;;;;;;;3.39;100.00;100743.50;5048786;28;20040;-67
2024/01/26 03:19:07;;;;;;;10.05;2.60;;;;;;;3.33;100.00;100736.28;5048370;28;20056;-67
2024/01/26 03:21:43;;;;;;;8.63;3.28;;;;;;;3.29;100.00;100718.09;5048096;28;20119;-71
2024/01/26 03:24:09;;;;;;;10.80;2.95;;;;;;;3.34;100.00;100743.16;5040143;28;20175;-69
2024/01/26 03:26:35;;;;;;;9.95;2.85;;;;;;;3.28;100.00;100731.63;5042055;28;20573;-67
2024/01/26 03:29:01;;;;;;;6.03;2.58;;;;;;;3.37;100.00;100737.38;5047319;28;20454;-68
2024/01/26 03:31:27;;;;;;;6.85;2.38;;;;;;;3.35;100.00;100742.41;5052674;28;20426;-69
2024/01/26 03:33:52;;;;;;;6.55;2.60;;;;;;;3.38;100.00;100742.59;5049295;28;20036;-67
2024/01/26 03:36:18;;;;;;;10.10;3.30;;;;;;;3.40;100.00;100752.91;5051537;28;20041;-68
2024/01/26 03:38:44;;;;;;;7.72;2.75;;;;;;;3.32;100.00;100729.41;5049072;28;20040;-69
2024/01/26 03:41:09;;;;;;;10.60;2.80;;;;;;;3.39;100.00;100730.75;5051917;28;20036;-67
2024/01/26 03:43:36;;;;;;;14.10;3.03;;;;;;;3.40;100.00;100738.50;5050961;28;20032;-70
2024/01/26 03:46:08;;;;;;;13.20;3.80;;;;;;;3.37;100.00;100717.84;5049983;28;20112;-67
2024/01/26 03:48:33;;;;;;;10.30;2.65;;;;;;;3.47;100.00;100732.13;5047011;28;20025;-67
2024/01/26 03:50:59;;;;;;;10.48;3.80;;;;;;;3.57;100.00;100741.31;5051842;28;20029;-68
2024/01/26 03:53:25;;;;;;;9.27;4.53;;;;;;;3.61;100.00;100744.97;5052134;28;20503;-68
2024/01/26 03:55:54;;;;;;;6.95;3.47;;;;;;;3.66;100.00;100741.06;5051294;28;20112;-68
2024/01/26 03:58:20;;;;;;;9.30;2.92;;;;;;;3.74;100.00;100752.72;5050739;28;20499;-67
2024/01/26 04:00:45;;;;;;;8.10;2.78;;;;;;;3.68;100.00;100742.94;5051257;28;20041;-68
2024/01/26 04:03:11;;;;;;;11.43;3.00;;;;;;;3.35;100.00;100703.22;5050914;28;20029;-68
2024/01/26 04:05:37;;;;;;;9.60;3.13;;;;;;;3.61;100.00;100743.31;5050880;28;20104;-69
2024/01/26 04:08:03;;;;;;;9.80;3.15;;;;;;;3.69;100.00;100736.19;5051444;28;20108;-68
2024/01/26 04:10:29;;;;;;;8.15;2.63;;;;;;;3.81;100.00;100748.91;5050610;28;20514;-68
2024/01/26 04:12:55;;;;;;;5.80;2.70;;;;;;;3.86;100.00;100761.22;5051597;28;20025;-67
2024/01/26 04:15:22;;;;;;;10.10;3.40;;;;;;;3.84;100.00;100732.13;5051059;28;20530;-67
2024/01/26 04:17:47;;;;;;;8.77;2.88;;;;;;;3.79;100.00;100732.56;5048724;28;20060;-68
2024/01/26 04:20:13;;;;;;;7.10;2.40;;;;;;;3.77;100.00;100746.94;5050942;28;20127;-67
2024/01/26 04:22:39;;;;;;;8.05;2.67;;;;;;;3.79;100.00;100768.34;5051319;28;20029;-68
2024/01/26 04:25:05;;;;;;;7.88;2.90;;;;;;;3.81;100.00;100766.78;5050439;28;20036;-68
2024/01/26 04:27:30;;;;;;;10.38;3.47;;;;;;;3.75;100.00;100762.16;5028875;28;20041;-67
2024/01/26 04:29:56;;;;;;;7.80;3.00;;;;;;;3.68;100.00;100740.41;5051590;28;20021;-67
2024/01/26 04:32:21;;;;;;;10.68;3.00;;;;;;;3.68;100.00;100742.94;5050859;28;20037;-67
2024/01/26 04:34:47;;;;;;;6.70;2.50;;;;;;;3.86;100.00;100780.75;5051332;28;20064;-68
2024/01/26 04:37:13;;;;;;;8.38;2.70;;;;;;;3.85;100.00;100777.31;5050952;28;20028;-68
2024/01/26 04:39:41;;;;;;;12.32;3.17;;;;;;;3.85;100.00;100778.97;5049000;28;20048;-68
2024/01/26 04:42:08;;;;;;;8.13;3.30;;;;;;;3.49;100.00;100719.47;5049962;28;20111;-68
2024/01/26 04:44:35;;;;;;;7.85;3.10;;;;;;;3.89;100.00;100780.97;5050602;28;20415;-67
2024/01/26 04:47:01;;;;;;;8.40;3.03;;;;;;;3.85;100.00;100772.22;5049111;28;20037;-68
2024/01/26 04:49:27;;;;;;;7.22;3.03;;;;;;;3.87;100.00;100778.28;5050677;28;20501;-68
2024/01/26 04:51:52;;;;;;;12.63;2.88;;;;;;;3.91;100.00;100779.41;5050803;28;20032;-68
2024/01/26 04:54:18;;;;;;;12.80;3.55;;;;;;;3.91;100.00;100784.50;5051338;28;20040;-68
2024/01/26 04:56:44;;;;;;;10.70;3.92;;;;;;;3.78;100.00;100767.47;5049845;28;20036;-66
2024/01/26 04:59:09;;;;;;;8.73;3.40;;;;;;;3.57;100.00;100728.56;5050073;28;20044;-67
2024/01/26 05:01:35;;;;;;;11.50;3.15;;;;;;;3.88;100.00;100787.72;5049221;28;20029;-67
2024/01/26 05:04:03;;;;;;;9.13;3.08;;;;;;;3.89;100.00;100792.06;5043432;28;20032;-67
2024/01/26 05:06:29;;;;;;;13.07;3.40;;;;;;;3.88;100.00;100809.84;5044523;28;20048;-67
2024/01/26 05:08:54;;;;;;;8.57;3.38;;;;;;;3.81;100.00;100784.66;5050682;28;20025;-69
2024/01/26 05:11:20;;;;;;;8.98;4.20;;;;;;;3.94;100.00;100796.59;5048098;28;20029;-68
2024/01/26 05:13:46;;;;;;;12.55;3.20;;;;;;;3.87;100.00;100793.63;5049684;28;20032;-68
2024/01/26 05:16:11;;;;;;;12.13;4.60;;;;;;;3.82;100.00;100778.78;5050403;28;20060;-68
2024/01/26 05:18:39;;;;;;;12.48;4.47;;;;;;;3.95;100.00;100806.03;5049618;28;20547;-68
2024/01/26 05:21:04;;;;;;;9.35;3.55;;;;;;;3.91;100.00;100812.59;5049902;28;20040;-72
2024/01/26 05:23:30;;;;;;;10.63;3.58;;;;;;;3.88;100.00;100814.97;5050543;28;20376;-68
2024/01/26 05:25:56;;;;;;;12.73;4.47;;;;;;;3.84;100.00;100805.31;5049247;28;20555;-69
2024/01/26 05:28:23;;;;;;;6.75;3.03;;;;;;;3.81;100.00;100792.31;5047952;28;20029;-70
2024/01/26 05:30:49;;;;;;;5.95;2.78;;;;;;;3.75;100.00;100768.91;5047193;28;20040;-69
2024/01/26 05:33:15;;;;;;;8.98;2.80;;;;;;;3.86;100.00;100776.56;5049235;28;20037;-69
2024/01/26 05:35:40;;;;;;;8.10;3.17;;;;;;;3.92;100.00;100786.28;5049531;28;20041;-68
2024/01/26 05:38:07;;;;;;;12.68;3.38;;;;;;;3.87;100.00;100803.84;5049670;28;20033;-68
2024/01/26 05:40:32;;;;;;;12.20;4.20;;;;;;;3.81;100.00;100795.75;5045255;28;20029;-66
2024/01/26 05:42:59;;;;;;;10.57;3.58;;;;;;;3.65;100.00;100773.41;5049371;28;20064;-68
2024/01/26 05:45:24;;;;;;;9.32;3.15;;;;;;;3.68;100.00;100773.59;5049626;28;20110;-67
2024/01/26 05:47:51;;;;;;;8.10;3.03;;;;;;;3.85;100.00;100800.31;5049387;28;20471;-68
2024/01/26 05:50:17;;;;;;;9.20;3.28;;;;;;;3.84;100.00;100797.66;5048638;28;20033;-68
2024/01/26 05:52:42;;;;;;;10.68;3.35;;;;;;;3.89;100.00;100796.31;5047598;28;20025;-67
2024/01/26 05:55:08;;;;;;;6.90;3.00;;;;;;;3.95;100.00;100781.41;5045688;28;20071;-69
2024/01/26 05:57:34;;;;;;;7.57;2.60;;;;;;;3.95;100.00;100785.59;5048763;28;20426;-68
2024/01/26 06:00:00;;;;;;;9.73;3.33;;;;;;;3.94;100.00;100783.81;5049698;28;20032;-67
2024/01/26 06:02:26;;;;;;;7.88;2.92;;;;;;;4.00;100.00;100780.03;5050152;28;20029;-66
2024/01/26 06:04:51;;;;;;;7.70;2.92;;;;;;;4.05;100.00;100781.25;5049485;28;20029;-69
2024/01/26 06:07:17;;;;;;;9.63;3.78;;;;;;;4.35;100.00;100804.53;5049046;28;20418;-67
2024/01/26 06:09:42;;;;;;;10.80;3.95;;;;;;;4.34;100.00;100801.88;5050296;28;20121;-67
2024/01/26 06:12:09;;;;;;;10.07;3.58;;;;;;;4.29;100.00;100776.00;5048935;28;20029;-66
2024/01/26 06:14:37;;;;;;;6.72;2.38;;;;;;;4.47;100.00;100809.56;5044698;28;20026;-66
2024/01/26 06:17:03;;;;;;;10.77;3.33;;;;;;;4.50;100.00;100819.16;5040767;28;20053;-69
2024/01/26 06:19:28;;;;;;;9.18;3.03;;;;;;;4.43;100.00;100804.19;5048918;28;20469;-69
2024/01/26 06:21:54;;;;;;;9.07;2.53;;;;;;;4.40;100.00;100796.28;5048894;28;20028;-68
2024/01/26 06:24:20;;;;;;;6.72;2.40;;;;;;;4.57;100.00;100825.53;5043721;28;20056;-71
2024/01/26 06:26:45;;;;;;;9.43;3.25;;;;;;;3.98;100.00;100733.06;5048401;28;20028;-72
2024/01/26 06:29:11;;;;;;;9.60;2.60;;;;;;;4.42;100.00;100820.28;5049571;28;20380;-67
2024/01/26 06:31:37;;;;;;;7.65;2.90;;;;;;;4.05;100.00;100767.59;5044975;28;20076;-67
2024/01/26 06:34:02;;;;;;;9.18;2.65;;;;;;;4.41;100.00;100821.97;5048413;28;20484;-68
2024/01/26 06:36:28;;;;;;;8.60;2.60;;;;;;;4.40;100.00;100830.41;5041960;28;20025;-69
2024/01/26 06:38:53;;;;;;;5.90;2.47;;;;;;;4.28;100.00;100843.25;5041669;28;20029;-69
2024/01/26 06:41:19;;;;;;;5.60;2.40;;;;;;;4.34;100.00;100838.53;5038689;28;20041;-68
2024/01/26 06:43:50;;;;;;;4.85;2.35;;;;;;;4.41;100.00;100844.06;5045922;28;20498;-71
2024/01/26 06:46:19;;;;;;;10.45;3.90;;;;;;;4.52;100.00;100838.91;5038471;28;20039;-67
2024/01/26 06:48:44;;;;;;;7.88;3.10;;;;;;;4.30;100.00;100767.56;5042490;28;20033;-69
2024/01/26 06:51:10;;;;;;;6.65;3.10;;;;;;;4.72;100.00;100830.78;5044513;28;20040;-67
2024/01/26 06:53:35;;;;;;;10.68;3.20;;;;;;;4.86;100.00;100815.56;5042640;28;20033;-69
2024/01/26 06:56:01;;;;;;;10.20;3.20;;;;;;;5.18;100.00;100828.66;5039223;28;20403;-65
2024/01/26 06:58:26;;;;;;;11.82;3.05;;;;;;;5.34;100.00;100833.97;5049501;28;20025;-66
2024/01/26 07:00:52;;;;;;;8.77;3.35;;;;;;;5.58;100.00;100823.53;5048903;28;20368;-68
2024/01/26 07:03:18;;;;;;;11.18;3.30;;;;;;;5.87;100.00;100829.59;5049448;28;20090;-71
2024/01/26 07:05:43;;;;;;;6.70;3.00;;;;;;;5.93;100.00;100818.81;5049464;28;20032;-67
2024/01/26 07:08:09;;;;;;;9.25;3.05;;;;;;;5.46;100.00;100739.13;5052966;28;20033;-66
2024/01/26 07:10:34;;;;;;;10.65;3.03;;;;;;;6.09;100.00;100825.78;5052235;28;20029;-68
2024/01/26 07:13:00;;;;;;;10.30;2.22;;;;;;;6.01;100.00;100835.59;5050263;28;20033;-68
2024/01/26 07:15:25;;;;;;;9.43;3.15;;;;;;;6.11;100.00;100824.22;5033866;28;20528;-67
2024/01/26 07:17:51;;;;;;;8.77;3.63;;;;;;;6.15;100.00;100828.72;5047231;28;20046;-67
2024/01/26 07:20:17;;;;;;;11.90;3.80;;;;;;;6.13;100.00;100822.63;5047550;28;20044;-68
2024/01/26 07:22:42;;;;;;;15.38;2.67;;;;;;;6.12;100.00;100842.25;5046872;28;20044;-69
2024/01/26 07:25:11;;;;;;;6.38;2.85;;;;;;;6.10;100.00;100848.06;5046601;28;20047;-69
2024/01/26 07:27:38;;;;;;;10.13;3.20;;;;;;;6.20;100.00;100849.53;5052492;28;20072;-69
2024/01/26 07:30:05;;;;;;;7.63;2.65;;;;;;;6.11;100.00;100821.66;5051063;28;20047;-70
2024/01/26 07:32:31;;;;;;;8.75;3.08;;;;;;;6.34;100.00;100846.09;5026887;28;20499;-67
2024/01/26 07:34:57;;;;;;;3.38;1.73;;;;;;;6.35;99.39;100840.19;5038728;28;20037;-68
2024/01/26 07:37:22;;;;;;;3.00;1.60;;;;;;;6.32;98.97;100840.88;5047623;28;20125;-66
2024/01/26 07:39:48;;;;;;;8.02;3.28;;;;;;;6.47;98.91;100850.31;5048989;28;20025;-72
2024/01/26 07:42:14;;;;;;;10.05;3.60;;;;;;;6.62;98.36;100847.75;5048394;28;20104;-67
2024/01/26 07:44:40;;;;;;;10.30;2.67;;;;;;;6.54;98.04;100841.28;5049975;28;20040;-70
2024/01/26 07:47:05;;;;;;;12.35;4.38;;;;;;;6.54;96.86;100831.00;5051755;28;20120;-67
2024/01/26 07:49:31;;;;;;;5.13;2.13;;;;;;;6.75;96.68;100862.19;5051974;28;20040;-68
2024/01/26 07:51:56;;;;;;;11.45;3.28;;;;;;;6.68;97.03;100843.00;5051770;28;20031;-67
2024/01/26 07:54:22;;;;;;;7.32;3.17;;;;;;;6.84;96.19;100860.16;5051433;28;20033;-67
2024/01/26 07:56:47;;;;;;;10.73;2.50;;;;;;;6.93;96.51;100865.81;5051344;28;20040;-66
2024/01/26 07:59:14;;;;;;;8.45;2.03;;;;;;;6.63;96.86;100827.31;5051458;28;20033;-67
2024/01/26 08:01:39;;;;;;;12.45;2.60;;;;;;;6.89;97.42;100871.59;5051234;28;20111;-67
2024/01/26 08:04:05;;;;;;;6.97;2.58;;;;;;;6.72;97.50;100862.03;5051851;28;20178;-67
2024/01/26 08:06:30;;;;;;;7.28;2.20;;;;;;;6.75;96.77;100857.97;5050840;28;20029;-67
2024/01/26 08:08:56;;;;;;;9.95;3.53;;;;;;;6.56;97.71;100812.34;5051714;28;20036;-66
2024/01/26 08:11:21;;;;;;;7.45;2.60;;;;;;;6.96;96.64;100860.84;5051344;28;20029;-68
2024/01/26 08:13:47;;;;;;;8.35;3.10;;;;;;;6.77;96.93;100809.28;5051271;28;20029;-67
2024/01/26 08:16:16;;;;;;;7.53;2.05;;;;;;;7.10;96.11;100855.63;5051486;28;20052;-66
2024/01/26 08:18:41;;;;;;;8.98;2.47;;;;;;;6.99;95.41;100825.91;5051250;28;20037;-68
2024/01/26 08:21:08;;;;;;;8.05;2.72;;;;;;;7.25;95.73;100829.94;5050725;28;20120;-67
2024/01/26 08:23:34;;;;;;;6.72;2.45;;;;;;;7.43;95.00;100841.25;5051752;28;20033;-67
2024/01/26 08:25:59;;;;;;;9.98;3.70;;;;;;;7.46;95.30;100845.66;5050572;28;20040;-67
2024/01/26 08:28:25;;;;;;;7.13;2.95;;;;;;;7.59;94.29;100842.09;5049575;28;20545;-68
2024/01/26 08:30:51;;;;;;;10.70;2.90;;;;;;;7.18;94.12;100751.69;5050982;28;20135;-69
2024/01/26 08:33:17;;;;;;;6.18;2.60;;;;;;;7.89;94.15;100842.00;5051659;28;20029;-67
2024/01/26 08:35:43;;;;;;;9.40;3.50;;;;;;;7.85;92.44;100840.03;5050401;28;20041;-71
2024/01/26 08:38:29;;;;;;;5.10;2.10;;;;;;;8.00;92.62;100852.84;5051056;28;20114;-67
2024/01/26 08:40:54;;;;;;;9.48;2.95;;;;;;;7.73;91.33;100773.47;5047969;28;20711;-68
2024/01/26 08:43:21;;;;;;;5.25;2.20;;;;;;;7.90;89.43;100789.75;5048002;28;20133;-68
2024/01/26 08:45:47;;;;;;;7.25;2.28;;;;;;;8.03;89.38;100833.31;5048614;28;20052;-68
2024/01/26 08:48:13;;;;;;;7.07;2.10;;;;;;;8.07;89.58;100852.38;5048155;28;20110;-67
2024/01/26 08:50:39;;;;;;;4.13;1.92;;;;;;;8.12;88.38;100860.34;5048703;28;20091;-66
2024/01/26 08:53:05;;;;;;;8.25;2.85;;;;;;;8.43;88.66;100858.56;4998467;28;20047;-66
2024/01/26 08:55:31;;;;;;;5.63;1.95;;;;;;;8.65;87.33;100866.53;5014633;28;20083;-67
2024/01/26 08:57:56;;;;;;;10.95;2.00;;;;;;;8.61;85.43;100862.03;5048140;28;20033;-72
2024/01/26 09:00:22;;;;;;;6.68;2.50;;;;;;;8.61;85.55;100878.38;5047676;28;20103;-68
2024/01/26 09:02:47;;;;;;;24.30;9.23;;;;;;;8.72;85.96;100861.78;5048670;28;20033;-68
2024/01/26 09:05:14;;;;;;;6.40;2.20;;;;;;;8.83;84.42;100861.44;5048009;28;20495;-67
2024/01/26 09:07:39;;;;;;;8.93;3.10;;;;;;;8.65;83.26;100833.97;5048189;28;20116;-69
2024/01/26 09:10:05;;;;;;;5.93;2.35;;;;;;;8.33;80.30;100806.56;5048804;28;20033;-68
2024/01/26 09:12:32;;;;;;;4.85;1.88;;;;;;;8.77;80.40;100882.59;5014703;28;20048;-68
2024/01/26 09:14:59;;;;;;;5.55;2.15;;;;;;;8.90;81.70;100869.53;5047428;28;20471;-69
2024/01/26 09:17:25;;;;;;;10.32;1.75;;;;;;;9.10;80.46;100845.56;5045808;28;20171;-68
2024/01/26 09:19:50;;;;;;;2.92;1.38;;;;;;;8.70;79.17;100796.47;5030418;28;20033;-67
2024/01/26 09:22:16;;;;;;;6.53;2.60;;;;;;;9.22;79.86;100865.13;5031281;28;20037;-68
2024/01/26 09:24:41;;;;;;;5.38;2.20;;;;;;;9.28;79.32;100868.78;5030549;28;20033;-68
2024/01/26 09:27:07;;;;;;;6.50;2.08;;;;;;;9.26;78.47;100870.41;5030209;28;20037;-69
2024/01/26 09:29:32;;;;;;;5.63;1.90;;;;;;;9.18;79.61;100850.31;5030204;28;20025;-73
2024/01/26 09:31:59;;;;;;;6.15;2.00;;;;;;;9.31;80.41;100848.31;5030415;28;20025;-68
2024/01/26 09:34:26;;;;;;;4.60;1.77;;;;;;;9.28;79.47;100856.78;5030982;28;20038;-67
2024/01/26 09:36:51;;;;;;;5.43;2.45;;;;;;;9.39;78.27;100855.63;5030434;28;20032;-68
2024/01/26 09:39:17;;;;;;;8.10;2.35;;;;;;;9.68;79.37;100855.22;5030064;28;20025;-68
2024/01/26 09:41:43;;;;;;;5.82;1.98;;;;;;;9.71;76.09;100852.78;5030716;28;20034;-67
2024/01/26 09:44:10;;;;;;;4.18;2.17;;;;;;;9.80;78.57;100849.75;5029594;28;20033;-67
2024/01/26 09:46:36;;;;;;;5.40;1.60;;;;;;;9.40;75.43;100784.34;5030341;28;20112;-68
2024/01/26 09:49:02;;;;;;;6.55;2.60;;;;;;;9.72;76.73;100852.00;5029474;28;20113;-69
2024/01/26 09:51:31;;;;;;;5.47;1.63;;;;;;;9.74;77.01;100847.78;5029530;28;20476;-67
2024/01/26 09:54:00;;;;;;;5.43;1.92;;;;;;;10.02;78.54;100843.91;5027655;28;20068;-72
2024/01/26 09:56:29;;;;;;;4.88;1.77;;;;;;;9.91;76.08;100845.09;5029990;28;20044;-69
2024/01/26 09:58:55;;;;;;;8.20;2.83;;;;;;;10.13;77.73;100847.84;5029591;28;20060;-71
2024/01/26 10:01:22;;;;;;;9.25;2.15;;;;;;;9.85;76.58;100849.13;5028672;28;20060;-69
2024/01/26 10:03:49;;;;;;;5.57;2.85;;;;;;;9.65;76.07;100860.25;5028443;28;20041;-67
2024/01/26 10:06:14;;;;;;;6.90;2.45;;;;;;;9.41;77.21;100829.03;5030099;28;20030;-68
2024/01/26 10:08:41;;;;;;;5.55;2.28;;;;;;;9.36;78.60;100828.81;5029797;28;20044;-69
2024/01/26 10:11:07;;;;;;;6.80;2.47;;;;;;;9.46;78.57;100841.31;5028862;28;20029;-70
2024/01/26 10:13:32;;;;;;;5.85;2.20;;;;;;;9.28;76.56;100817.25;5028904;28;20028;-70
2024/01/26 10:16:09;;;;;;;6.85;2.17;;;;;;;9.50;77.81;100840.66;5023247;28;20045;-72
2024/01/26 10:18:48;;;;;;;7.35;1.70;;;;;;;9.37;78.91;100809.94;5046417;28;20037;-67
2024/01/26 10:21:15;;;;;;;6.50;2.25;;;;;;;9.44;78.76;100778.50;5047923;28;20106;-69
2024/01/26 10:23:41;;;;;;;6.40;2.15;;;;;;;10.01;77.07;100836.97;5048514;28;20032;-73
2024/01/26 10:26:10;;;;;;;7.38;2.40;;;;;;;9.94;75.72;100778.16;5048303;28;20119;-69
2024/01/26 10:28:36;;;;;;;6.97;2.10;;;;;;;10.13;74.56;100826.28;5049173;28;20040;-68
2024/01/26 10:31:01;;;;;;;6.43;2.33;;;;;;;10.02;75.30;100826.72;5048951;28;20029;-69
2024/01/26 10:33:31;;;;;;;8.57;2.30;;;;;;;10.00;74.75;100820.59;5048837;28;20075;-67
2024/01/26 10:36:00;;;;;;;6.22;2.05;;;;;;;10.16;71.78;100829.03;5049380;28;20110;-69
2024/01/26 10:38:29;;;;;;;5.63;2.13;;;;;;;10.19;71.98;100822.31;5050103;28;20043;-69
2024/01/26 10:41:01;;;;;;;5.85;2.17;;;;;;;10.32;71.63;100812.53;5053240;28;20065;-66
2024/01/26 10:43:28;;;;;;;4.32;1.83;;;;;;;10.53;71.10;100799.69;5053145;28;20045;-66
2024/01/26 10:45:55;;;;;;;6.70;2.10;;;;;;;10.79;72.08;100805.94;5052964;28;20045;-65
2024/01/26 10:48:22;;;;;;;4.15;1.92;;;;;;;10.95;72.78;100803.97;5047537;28;20025;-69
2024/01/26 10:50:48;;;;;;;8.07;2.25;;;;;;;10.78;69.73;100804.19;5048761;28;20098;-67
2024/01/26 10:53:14;;;;;;;7.97;2.60;;;;;;;10.69;70.48;100806.34;5051573;28;20029;-68
2024/01/26 10:55:40;;;;;;;6.63;1.65;;;;;;;10.55;70.27;100798.03;5051530;28;20048;-70
2024/01/26 10:58:07;;;;;;;5.72;2.15;;;;;;;10.45;70.83;100801.06;5052392;28;20025;-68
2024/01/26 11:00:34;;;;;;;8.80;2.47;;;;;;;10.40;70.31;100794.81;5050996;28;20072;-70
2024/01/26 11:02:59;;;;;;;5.63;1.85;;;;;;;10.30;72.68;100786.63;5052707;28;20025;-67
2024/01/26 11:05:25;;;;;;;4.97;2.15;;;;;;;9.91;72.65;100781.50;5052472;28;20059;-67
2024/01/26 11:07:52;;;;;;;7.60;3.42;;;;;;;9.95;71.97;100772.19;5052489;28;20021;-68
2024/01/26 11:10:24;;;;;;;7.72;2.80;;;;;;;9.63;72.58;100722.66;5052456;28;20025;-68
2024/01/26 11:13:05;;;;;;;8.90;2.45;;;;;;;9.94;71.71;100791.94;5047402;28;20037;-68
2024/01/26 11:15:31;;;;;;;5.90;1.80;;;;;;;9.80;71.10;100793.03;5052276;28;20075;-68
2024/01/26 11:17:58;;;;;;;7.60;2.88;;;;;;;9.78;71.80;100799.81;5051275;28;20060;-68
2024/01/26 11:20:31;;;;;;;5.55;2.03;;;;;;;9.75;71.33;100785.09;5052323;28;20037;-69